Time;durP1;ratioP1;P1;durP2;ratioP2;P2;SDS_P1;SDS_P2;PMS_P1;PMS_P2;Temp;Humidity;BMP_temperature;BMP_pressure;BME280_temperature;BME280_humidity;BME280_pressure;Samples;Min_cycle;Max_cycle;Signal;HPM_P1;HPM_P2
2022/04/15 00:00:39;;;;;;;12.67;8.07;;;10.50;99.90;;;;;;5030865;28;20176;-68
2022/04/15 00:03:07;;;;;;;8.57;7.37;;;10.60;99.90;;;;;;5031051;28;20709;-68
2022/04/15 00:05:37;;;;;;;12.07;6.87;;;10.60;99.90;;;;;;5030978;28;20218;-68
2022/04/15 00:08:11;;;;;;;10.50;8.43;;;10.50;99.90;;;;;;5029671;28;20413;-69
2022/04/15 00:10:39;;;;;;;13.10;7.80;;;10.50;99.90;;;;;;5030844;28;20459;-68
2022/04/15 00:13:06;;;;;;;10.43;6.47;;;10.40;99.90;;;;;;5030600;28;20946;-68
2022/04/15 00:15:32;;;;;;;10.97;8.00;;;10.30;99.90;;;;;;5030892;28;20411;-69
2022/04/15 00:17:58;;;;;;;10.60;6.53;;;10.30;99.90;;;;;;5030917;28;20468;-69
2022/04/15 00:20:26;;;;;;;8.63;6.60;;;10.30;99.90;;;;;;5030743;28;20418;-69
2022/04/15 00:22:52;;;;;;;7.10;5.93;;;10.20;99.90;;;;;;5030549;28;20563;-68
2022/04/15 00:25:19;;;;;;;13.20;7.00;;;10.20;99.90;;;;;;5034157;28;20509;-69
2022/04/15 00:27:45;;;;;;;10.47;6.57;;;10.10;99.90;;;;;;5034244;28;20412;-69
2022/04/15 00:30:11;;;;;;;8.23;5.90;;;10.10;99.90;;;;;;5034080;28;20429;-69
2022/04/15 00:32:37;;;;;;;9.93;6.50;;;10.00;99.90;;;;;;5034094;28;20253;-69
2022/04/15 00:35:03;;;;;;;7.80;5.90;;;10.10;99.90;;;;;;5033957;28;20426;-69
2022/04/15 00:37:31;;;;;;;9.83;6.83;;;10.20;99.90;;;;;;5034073;28;20750;-68
2022/04/15 00:39:56;;;;;;;9.00;6.33;;;10.20;99.90;;;;;;5034116;28;20417;-68
2022/04/15 00:42:22;;;;;;;9.30;5.90;;;10.30;99.90;;;;;;5033967;28;20410;-68
2022/04/15 00:44:52;;;;;;;8.90;6.60;;;10.30;99.90;;;;;;5033760;28;20216;-68
2022/04/15 00:47:25;;;;;;;12.77;6.53;;;10.20;99.90;;;;;;5033991;28;20274;-69
2022/04/15 00:49:50;;;;;;;8.47;6.27;;;10.30;99.90;;;;;;5033942;28;20498;-69
2022/04/15 00:52:20;;;;;;;10.80;7.20;;;10.30;99.90;;;;;;5034030;28;20956;-68
2022/04/15 00:54:48;;;;;;;18.20;7.17;;;10.30;99.90;;;;;;5033993;28;20185;-68
2022/04/15 00:57:16;;;;;;;8.83;6.37;;;10.30;99.90;;;;;;5033757;28;20864;-69
2022/04/15 00:59:44;;;;;;;8.87;6.57;;;10.30;99.90;;;;;;5034077;28;20516;-68
2022/04/15 01:02:10;;;;;;;11.27;7.00;;;10.30;99.90;;;;;;5033242;28;20406;-68
2022/04/15 01:04:40;;;;;;;10.90;7.13;;;10.30;99.90;;;;;;5033316;28;20967;-68
2022/04/15 01:07:09;;;;;;;9.57;6.43;;;10.30;99.90;;;;;;5033457;28;20773;-68
2022/04/15 01:09:42;;;;;;;12.63;6.70;;;10.30;99.90;;;;;;5033255;28;20414;-68
2022/04/15 01:12:09;;;;;;;10.73;6.97;;;10.30;99.90;;;;;;5033723;28;20450;-68
2022/04/15 01:14:37;;;;;;;12.60;6.90;;;10.20;99.90;;;;;;5031820;28;20805;-68
2022/04/15 01:17:03;;;;;;;7.83;6.30;;;10.20;99.90;;;;;;5033371;28;20410;-68
2022/04/15 01:19:29;;;;;;;8.70;5.70;;;10.20;99.90;;;;;;5033311;28;20467;-69
2022/04/15 01:21:56;;;;;;;14.73;6.73;;;10.10;99.90;;;;;;5033490;28;20217;-68
2022/04/15 01:24:23;;;;;;;9.43;5.50;;;10.10;99.90;;;;;;5033193;28;20458;-68
2022/04/15 01:26:48;;;;;;;8.50;5.63;;;10.00;99.90;;;;;;5033312;28;20781;-69
2022/04/15 01:29:14;;;;;;;7.13;5.20;;;10.00;99.90;;;;;;5033262;28;20407;-68
2022/04/15 01:31:39;;;;;;;8.23;5.90;;;10.00;99.90;;;;;;5032849;28;20516;-68
2022/04/15 01:34:05;;;;;;;8.63;5.00;;;10.00;99.90;;;;;;5033111;28;20572;-68
2022/04/15 01:36:30;;;;;;;7.13;4.70;;;9.90;99.90;;;;;;5031735;28;20266;-67
2022/04/15 01:38:57;;;;;;;7.50;4.83;;;9.80;99.90;;;;;;5032843;28;20198;-67
2022/04/15 01:41:23;;;;;;;4.77;4.30;;;9.80;99.90;;;;;;5032737;28;20592;-67
2022/04/15 01:43:49;;;;;;;4.73;4.23;;;9.80;99.90;;;;;;5032995;28;20463;-69
2022/04/15 01:46:14;;;;;;;4.50;4.10;;;9.70;99.90;;;;;;5032678;28;20604;-67
2022/04/15 01:48:40;;;;;;;4.77;4.13;;;9.60;99.90;;;;;;5032733;28;20610;-67
2022/04/15 01:51:05;;;;;;;5.67;3.33;;;9.50;99.90;;;;;;5032477;28;20237;-67
2022/04/15 01:53:31;;;;;;;7.30;4.60;;;9.40;99.90;;;;;;5032428;28;20560;-66
2022/04/15 01:55:56;;;;;;;4.60;3.37;;;9.30;99.90;;;;;;5032195;28;20721;-67
2022/04/15 01:58:22;;;;;;;3.23;2.93;;;9.20;99.90;;;;;;5032400;28;20562;-66
2022/04/15 02:00:47;;;;;;;4.50;4.10;;;9.20;99.90;;;;;;5032154;28;20219;-66
2022/04/15 02:03:13;;;;;;;5.37;4.87;;;9.10;99.90;;;;;;5032108;28;20230;-66
2022/04/15 02:05:39;;;;;;;4.10;3.60;;;9.10;99.90;;;;;;5031947;28;20660;-66
2022/04/15 02:08:04;;;;;;;6.20;4.30;;;9.00;99.90;;;;;;5032046;28;20382;-66
2022/04/15 02:10:31;;;;;;;14.00;4.40;;;8.90;99.90;;;;;;5031818;28;20174;-67
2022/04/15 02:12:56;;;;;;;4.90;4.00;;;8.80;99.90;;;;;;5031595;28;20202;-66
2022/04/15 02:15:22;;;;;;;5.63;3.50;;;8.70;99.90;;;;;;5031635;28;20466;-66
2022/04/15 02:17:47;;;;;;;4.37;3.90;;;8.70;99.90;;;;;;5031847;28;20537;-66
2022/04/15 02:20:13;;;;;;;6.80;5.10;;;8.60;99.90;;;;;;5032289;28;20179;-66
2022/04/15 02:22:38;;;;;;;4.93;4.10;;;8.70;99.90;;;;;;5032161;28;20753;-67
2022/04/15 02:25:05;;;;;;;6.03;4.07;;;8.70;99.90;;;;;;5032389;28;20169;-67
2022/04/15 02:27:30;;;;;;;5.20;3.97;;;8.70;99.90;;;;;;5032519;28;20172;-67
2022/04/15 02:29:55;;;;;;;10.80;5.27;;;8.70;99.90;;;;;;5032111;28;20461;-67
2022/04/15 02:32:23;;;;;;;5.33;3.30;;;8.60;99.90;;;;;;5031993;28;20176;-67
2022/04/15 02:34:48;;;;;;;4.97;4.10;;;8.50;99.90;;;;;;5031749;28;20290;-66
2022/04/15 02:37:14;;;;;;;8.03;3.83;;;8.50;99.90;;;;;;5032016;28;20853;-67
2022/04/15 02:39:39;;;;;;;8.20;3.30;;;8.40;99.90;;;;;;5032117;28;20160;-67
2022/04/15 02:42:05;;;;;;;5.50;3.87;;;8.30;99.90;;;;;;5031855;28;20172;-68
2022/04/15 02:44:30;;;;;;;5.03;3.40;;;8.20;99.90;;;;;;5031685;28;20211;-67
2022/04/15 02:46:58;;;;;;;5.13;4.70;;;8.20;99.90;;;;;;5031960;28;20172;-67
2022/04/15 02:49:26;;;;;;;4.20;3.67;;;8.10;99.90;;;;;;5032138;28;20168;-67
2022/04/15 02:51:52;;;;;;;5.30;3.77;;;8.10;99.90;;;;;;5031887;28;20414;-67
2022/04/15 02:54:17;;;;;;;5.63;3.97;;;8.10;99.90;;;;;;5031981;28;20456;-67
2022/04/15 02:56:43;;;;;;;6.20;4.63;;;8.10;99.90;;;;;;5031605;28;20402;-68
2022/04/15 02:59:08;;;;;;;5.00;4.57;;;8.20;99.90;;;;;;5031864;28;20183;-67
2022/04/15 03:01:34;;;;;;;3.77;3.40;;;8.20;99.90;;;;;;5031824;28;20195;-67
2022/04/15 03:03:59;;;;;;;4.93;3.20;;;8.20;99.90;;;;;;5032066;28;20696;-67
2022/04/15 03:06:25;;;;;;;6.80;3.57;;;8.20;99.90;;;;;;5032395;28;20179;-67
2022/04/15 03:08:50;;;;;;;4.23;3.70;;;8.20;99.90;;;;;;5032517;28;20197;-67
2022/04/15 03:11:16;;;;;;;4.63;3.93;;;8.20;99.90;;;;;;5032839;28;20263;-67
2022/04/15 03:13:42;;;;;;;5.40;3.97;;;8.20;99.90;;;;;;5032544;28;20566;-67
2022/04/15 03:16:07;;;;;;;5.00;3.53;;;8.20;99.90;;;;;;5032590;28;20407;-68
2022/04/15 03:18:32;;;;;;;6.07;4.00;;;8.20;99.90;;;;;;5032805;28;20167;-66
2022/04/15 03:20:58;;;;;;;3.73;3.40;;;8.20;99.90;;;;;;5033269;28;20236;-67
2022/04/15 03:23:24;;;;;;;6.37;3.70;;;8.10;99.90;;;;;;5032844;28;20203;-66
2022/04/15 03:25:49;;;;;;;5.87;3.30;;;8.10;99.90;;;;;;5032565;28;20258;-66
2022/04/15 03:28:15;;;;;;;5.33;4.73;;;8.10;99.90;;;;;;5031646;28;20171;-66
2022/04/15 03:30:40;;;;;;;6.87;3.77;;;8.20;99.90;;;;;;5031687;28;20237;-66
2022/04/15 03:33:06;;;;;;;4.23;3.00;;;8.20;99.90;;;;;;5052924;22;20206;-71
2022/04/15 03:35:31;;;;;;;4.70;3.73;;;8.20;99.90;;;;;;5011253;28;20318;-70
2022/04/15 03:37:57;;;;;;;4.30;3.20;;;8.30;99.90;;;;;;5011956;28;20180;-71
2022/04/15 03:40:23;;;;;;;4.60;3.77;;;8.20;99.90;;;;;;5012025;28;20564;-71
2022/04/15 03:42:50;;;;;;;3.93;3.30;;;8.10;99.90;;;;;;5011795;28;20204;-71
2022/04/15 03:45:22;;;;;;;4.67;3.37;;;8.20;99.90;;;;;;5011863;28;20275;-71
2022/04/15 03:47:52;;;;;;;4.20;3.87;;;8.20;99.90;;;;;;5012196;28;20411;-71
2022/04/15 03:50:18;;;;;;;4.73;4.13;;;8.20;99.90;;;;;;5011854;28;20403;-71
2022/04/15 03:52:46;;;;;;;7.80;4.47;;;8.20;99.90;;;;;;5011775;28;20411;-70
2022/04/15 03:55:14;;;;;;;5.97;4.47;;;8.20;99.90;;;;;;5011776;28;20423;-70
2022/04/15 03:57:40;;;;;;;3.30;3.00;;;8.20;99.90;;;;;;5012022;28;20409;-70
2022/04/15 04:00:16;;;;;;;6.80;4.70;;;8.20;99.90;;;;;;5015420;28;20446;-70
2022/04/15 04:02:43;;;;;;;7.40;5.13;;;8.20;99.90;;;;;;5015517;28;21019;-71
2022/04/15 04:05:09;;;;;;;5.90;4.10;;;8.20;99.90;;;;;;5015366;28;20482;-70
2022/04/15 04:07:34;;;;;;;4.87;3.90;;;8.20;99.90;;;;;;5015462;28;20964;-70
2022/04/15 04:10:00;;;;;;;4.30;3.57;;;8.20;99.90;;;;;;5015545;28;20653;-70
2022/04/15 04:12:25;;;;;;;5.17;3.80;;;8.20;99.90;;;;;;5015368;28;20195;-70
2022/04/15 04:14:51;;;;;;;4.90;4.17;;;8.30;99.90;;;;;;5015392;28;20188;-70
2022/04/15 04:17:16;;;;;;;6.30;3.83;;;8.30;99.90;;;;;;5015335;28;20169;-70
2022/04/15 04:19:41;;;;;;;9.33;5.30;;;8.30;99.90;;;;;;5015354;28;20164;-70
2022/04/15 04:22:07;;;;;;;6.30;4.80;;;8.30;99.90;;;;;;5015178;28;20175;-70
2022/04/15 04:24:33;;;;;;;5.00;4.20;;;8.20;99.90;;;;;;5015240;28;20686;-71
2022/04/15 04:26:58;;;;;;;5.70;3.57;;;8.30;99.90;;;;;;5015369;28;20181;-71
2022/04/15 04:29:24;;;;;;;5.30;3.83;;;8.30;99.90;;;;;;5015420;28;20161;-70
2022/04/15 04:31:49;;;;;;;6.30;4.03;;;8.30;99.90;;;;;;5013824;28;20168;-71
2022/04/15 04:34:14;;;;;;;6.53;3.83;;;8.30;99.90;;;;;;5014888;28;20577;-71
2022/04/15 04:36:40;;;;;;;6.43;4.40;;;8.30;99.90;;;;;;5014808;28;20196;-71
2022/04/15 04:39:08;;;;;;;7.60;4.63;;;8.20;99.90;;;;;;5013612;28;20171;-71
2022/04/15 04:41:33;;;;;;;7.13;3.23;;;8.30;99.90;;;;;;5014816;28;20181;-71
2022/04/15 04:43:59;;;;;;;5.10;4.20;;;8.30;99.90;;;;;;5014644;28;20818;-71
2022/04/15 04:46:24;;;;;;;3.83;3.40;;;8.30;99.90;;;;;;5014437;28;20157;-71
2022/04/15 04:48:50;;;;;;;9.17;4.70;;;8.30;99.90;;;;;;5014567;28;20661;-71
2022/04/15 04:51:15;;;;;;;6.23;3.80;;;8.40;99.90;;;;;;5014536;28;20210;-71
2022/04/15 04:53:41;;;;;;;4.83;3.80;;;8.30;99.90;;;;;;5014302;28;20189;-71
2022/04/15 04:56:06;;;;;;;7.27;4.40;;;8.30;99.90;;;;;;5014433;28;20169;-71
2022/04/15 04:58:32;;;;;;;6.43;4.43;;;8.30;99.90;;;;;;5014310;28;20658;-71
2022/04/15 05:00:57;;;;;;;11.30;4.30;;;8.30;99.90;;;;;;5014376;28;20196;-71
2022/04/15 05:03:23;;;;;;;5.60;4.57;;;8.30;99.90;;;;;;5014070;28;20196;-71
2022/04/15 05:05:48;;;;;;;4.90;3.67;;;8.30;99.90;;;;;;5014126;28;20222;-71
2022/04/15 05:08:13;;;;;;;4.30;3.77;;;8.40;99.90;;;;;;5014074;28;20169;-71
2022/04/15 05:10:39;;;;;;;5.40;3.60;;;8.40;99.90;;;;;;5013994;28;20168;-71
2022/04/15 05:13:04;;;;;;;6.67;4.57;;;8.40;99.90;;;;;;5014016;28;20256;-71
2022/04/15 05:15:30;;;;;;;4.87;3.10;;;8.40;99.90;;;;;;5013918;28;20204;-71
2022/04/15 05:17:55;;;;;;;3.60;3.23;;;8.30;99.90;;;;;;5013980;28;20176;-71
2022/04/15 05:20:21;;;;;;;5.47;3.70;;;8.40;99.90;;;;;;5014032;28;20573;-71
2022/04/15 05:22:46;;;;;;;6.60;3.83;;;8.40;99.90;;;;;;5013721;28;20200;-71
2022/04/15 05:25:13;;;;;;;4.00;3.40;;;8.40;99.90;;;;;;5013689;28;20192;-71
2022/04/15 05:27:39;;;;;;;6.80;4.70;;;8.50;99.90;;;;;;5013965;28;20200;-70
2022/04/15 05:30:05;;;;;;;5.67;4.40;;;8.50;99.90;;;;;;5013714;28;20430;-70
2022/04/15 05:32:31;;;;;;;5.50;3.87;;;8.50;99.90;;;;;;5013649;28;20173;-71
2022/04/15 05:34:56;;;;;;;6.63;4.03;;;8.60;99.90;;;;;;5013602;28;20795;-72
2022/04/15 05:37:22;;;;;;;4.40;4.00;;;8.50;99.90;;;;;;5013592;28;20165;-71
2022/04/15 05:39:47;;;;;;;4.53;3.50;;;8.60;99.90;;;;;;5014098;28;20203;-71
2022/04/15 05:42:13;;;;;;;5.80;3.63;;;8.60;99.90;;;;;;5014096;28;20631;-70
2022/04/15 05:44:41;;;;;;;5.90;4.10;;;8.50;99.90;;;;;;5013552;28;20668;-70
2022/04/15 05:47:07;;;;;;;7.13;4.13;;;8.60;99.90;;;;;;5012460;28;20203;-70
2022/04/15 05:49:34;;;;;;;4.70;4.00;;;8.70;99.90;;;;;;5013789;28;20403;-70
2022/04/15 05:52:00;;;;;;;6.47;4.10;;;8.80;99.90;;;;;;5013476;28;20404;-71
2022/04/15 05:54:25;;;;;;;5.50;3.90;;;8.70;99.90;;;;;;5013590;28;20423;-70
2022/04/15 05:56:51;;;;;;;4.70;3.30;;;8.70;99.90;;;;;;5013568;28;20861;-71
2022/04/15 05:59:20;;;;;;;4.93;4.47;;;8.80;99.90;;;;;;5013318;28;20541;-70
2022/04/15 06:01:46;;;;;;;3.57;3.10;;;8.80;99.90;;;;;;5013412;28;20164;-71
2022/04/15 06:04:12;;;;;;;4.67;3.20;;;8.70;99.90;;;;;;5013442;28;20456;-71
2022/04/15 06:06:37;;;;;;;4.83;3.67;;;8.80;99.90;;;;;;5012917;28;20780;-71
2022/04/15 06:09:03;;;;;;;2.90;2.60;;;8.80;99.90;;;;;;5013070;28;20160;-70
2022/04/15 06:11:28;;;;;;;4.80;3.60;;;8.80;99.90;;;;;;5011426;28;20252;-70
2022/04/15 06:13:54;;;;;;;8.83;4.03;;;8.80;99.90;;;;;;5012755;28;20687;-70
2022/04/15 06:16:23;;;;;;;3.60;3.30;;;8.90;99.90;;;;;;5012805;28;20602;-70
2022/04/15 06:18:49;;;;;;;7.53;3.77;;;8.80;99.90;;;;;;5013096;28;20184;-70
2022/04/15 06:21:15;;;;;;;3.80;3.00;;;8.90;99.90;;;;;;5012078;28;20416;-70
2022/04/15 06:23:40;;;;;;;5.43;3.23;;;9.00;99.90;;;;;;5012809;28;20509;-70
2022/04/15 06:26:06;;;;;;;4.57;3.87;;;9.00;99.90;;;;;;5013015;28;20181;-70
2022/04/15 06:28:32;;;;;;;3.67;3.33;;;8.90;99.90;;;;;;5013275;28;20636;-70
2022/04/15 06:30:58;;;;;;;3.83;3.50;;;8.90;99.90;;;;;;5013069;28;20928;-70
2022/04/15 06:33:24;;;;;;;4.50;3.10;;;8.80;99.90;;;;;;5012519;28;20250;-70
2022/04/15 06:35:52;;;;;;;5.27;3.87;;;8.80;99.90;;;;;;5012515;28;20642;-72
2022/04/15 06:38:18;;;;;;;9.60;5.03;;;8.80;99.90;;;;;;5012550;28;20196;-71
2022/04/15 06:40:44;;;;;;;3.60;3.30;;;8.80;99.90;;;;;;5012744;28;20411;-70
2022/04/15 06:43:09;;;;;;;4.77;3.90;;;8.90;99.90;;;;;;5012327;28;20192;-72
2022/04/15 06:45:35;;;;;;;4.07;2.73;;;9.00;99.90;;;;;;5012662;28;20179;-72
2022/04/15 06:48:01;;;;;;;3.93;2.90;;;9.00;99.90;;;;;;5012584;28;20175;-71
2022/04/15 06:50:26;;;;;;;4.90;3.83;;;9.00;99.90;;;;;;5012553;28;20411;-71
2022/04/15 06:52:52;;;;;;;4.40;3.00;;;8.90;99.90;;;;;;5012522;28;20168;-71
2022/04/15 06:55:18;;;;;;;4.40;3.90;;;9.00;99.90;;;;;;5012022;28;20195;-71
2022/04/15 06:57:44;;;;;;;5.47;3.33;;;8.90;99.90;;;;;;5012592;28;20541;-71
2022/04/15 07:00:13;;;;;;;5.07;3.37;;;9.00;99.90;;;;;;5012625;28;20412;-71
2022/04/15 07:02:39;;;;;;;3.50;3.20;;;9.20;99.90;;;;;;5012326;28;20184;-70
2022/04/15 07:05:06;;;;;;;4.00;3.60;;;9.30;99.90;;;;;;5012397;28;20435;-70
2022/04/15 07:07:32;;;;;;;3.97;2.40;;;9.30;99.90;;;;;;5012480;28;20817;-70
2022/04/15 07:09:58;;;;;;;3.40;2.90;;;9.30;99.90;;;;;;5012483;28;20446;-70
2022/04/15 07:12:23;;;;;;;4.13;3.30;;;9.40;99.90;;;;;;5012137;28;20188;-70
2022/04/15 07:14:49;;;;;;;5.40;3.80;;;9.30;99.90;;;;;;5012051;28;20199;-70
2022/04/15 07:17:14;;;;;;;5.67;3.87;;;9.30;99.90;;;;;;5012075;28;20165;-70
2022/04/15 07:19:40;;;;;;;7.43;2.90;;;9.20;99.90;;;;;;5012011;28;20622;-70
2022/04/15 07:22:05;;;;;;;4.60;3.10;;;9.10;99.90;;;;;;5012124;28;20172;-70
2022/04/15 07:24:33;;;;;;;3.30;2.63;;;9.10;99.90;;;;;;5011985;28;20569;-70
2022/04/15 07:26:59;;;;;;;3.50;3.00;;;9.20;99.90;;;;;;5011985;28;20172;-70
2022/04/15 07:29:26;;;;;;;7.10;4.00;;;9.20;99.90;;;;;;5012014;28;20466;-70
2022/04/15 07:31:52;;;;;;;3.73;3.00;;;9.20;99.90;;;;;;5011773;28;20405;-70
2022/04/15 07:34:17;;;;;;;3.90;3.57;;;9.10;99.90;;;;;;5014319;28;20462;-70
2022/04/15 07:36:44;;;;;;;4.00;3.37;;;9.10;99.90;;;;;;5016203;28;20412;-70
2022/04/15 07:39:14;;;;;;;3.07;2.67;;;9.20;99.90;;;;;;5016361;28;20545;-72
2022/04/15 07:41:41;;;;;;;5.20;4.20;;;9.20;99.90;;;;;;5015773;28;20419;-69
2022/04/15 07:44:11;;;;;;;3.50;3.00;;;9.30;99.90;;;;;;5015545;28;20470;-70
2022/04/15 07:46:38;;;;;;;6.03;3.33;;;9.40;99.90;;;;;;5015590;28;20443;-71
2022/04/15 07:49:05;;;;;;;3.73;2.90;;;9.40;99.90;;;;;;5015733;28;20400;-70
2022/04/15 07:51:32;;;;;;;2.80;2.60;;;9.20;99.90;;;;;;5015511;28;20399;-70
2022/04/15 07:53:58;;;;;;;4.73;3.50;;;9.30;99.90;;;;;;5015873;28;20458;-71
2022/04/15 07:56:23;;;;;;;3.50;3.00;;;9.30;99.90;;;;;;5015543;28;20403;-71
2022/04/15 07:58:50;;;;;;;5.37;4.13;;;9.20;99.90;;;;;;5015652;28;20204;-70
2022/04/15 08:01:19;;;;;;;4.17;3.77;;;9.10;99.90;;;;;;4998247;28;20176;-70
2022/04/15 08:03:44;;;;;;;6.47;3.90;;;9.10;99.90;;;;;;5015348;28;20546;-71
2022/04/15 08:06:10;;;;;;;3.73;2.70;;;9.30;99.90;;;;;;5015451;28;20483;-71
2022/04/15 08:08:36;;;;;;;4.77;3.50;;;9.30;99.90;;;;;;5015264;28;20176;-71
2022/04/15 08:11:01;;;;;;;4.50;2.90;;;9.30;99.90;;;;;;5015521;28;20176;-71
2022/04/15 08:13:27;;;;;;;5.70;4.00;;;9.30;99.90;;;;;;5015391;28;20227;-71
2022/04/15 08:15:53;;;;;;;5.57;3.77;;;9.20;99.90;;;;;;5015888;28;20256;-71
2022/04/15 08:18:20;;;;;;;4.10;3.00;;;9.10;99.90;;;;;;5017981;28;20464;-71
2022/04/15 08:20:45;;;;;;;5.10;3.70;;;9.20;99.90;;;;;;5022784;28;20426;-71
2022/04/15 08:23:11;;;;;;;9.67;3.10;;;9.20;99.90;;;;;;5027994;28;20451;-71
2022/04/15 08:25:37;;;;;;;3.20;2.57;;;9.20;99.90;;;;;;5019556;28;20592;-70
2022/04/15 08:28:06;;;;;;;3.33;3.03;;;9.30;99.90;;;;;;5015080;28;20224;-71
2022/04/15 08:30:35;;;;;;;6.00;3.43;;;9.20;99.90;;;;;;5014981;28;20203;-71
2022/04/15 08:33:02;;;;;;;5.73;3.60;;;9.20;99.90;;;;;;5015010;28;20411;-71
2022/04/15 08:35:28;;;;;;;6.80;3.50;;;9.20;99.90;;;;;;5015101;28;20448;-70
2022/04/15 08:37:53;;;;;;;4.50;2.97;;;9.10;99.90;;;;;;5014716;28;20458;-70
2022/04/15 08:40:19;;;;;;;6.40;3.63;;;9.20;99.90;;;;;;5014695;28;20207;-71
2022/04/15 08:42:45;;;;;;;4.13;3.20;;;9.30;99.90;;;;;;5014462;28;20212;-70
2022/04/15 08:45:13;;;;;;;11.47;4.40;;;9.40;99.90;;;;;;5013971;28;20254;-70
2022/04/15 08:47:41;;;;;;;3.73;3.30;;;9.40;99.90;;;;;;5013147;28;20272;-70
2022/04/15 08:50:10;;;;;;;4.07;3.03;;;9.30;99.90;;;;;;5014380;28;20499;-71
2022/04/15 08:52:36;;;;;;;4.13;2.97;;;9.30;99.90;;;;;;5014298;28;20470;-71
2022/04/15 08:55:05;;;;;;;4.03;3.13;;;9.30;99.90;;;;;;5014248;28;20515;-71
2022/04/15 08:57:31;;;;;;;6.40;3.20;;;9.30;99.90;;;;;;5012908;28;20427;-71
2022/04/15 08:59:57;;;;;;;3.70;3.40;;;9.40;99.90;;;;;;5012992;28;20450;-71
2022/04/15 09:02:33;;;;;;;4.47;3.70;;;9.40;99.90;;;;;;5014594;28;20400;-71
2022/04/15 09:05:00;;;;;;;3.17;2.83;;;9.50;99.90;;;;;;5014198;28;20446;-71
2022/04/15 09:07:29;;;;;;;4.43;2.77;;;9.30;99.90;;;;;;5014183;28;20407;-71
2022/04/15 09:10:00;;;;;;;3.43;3.10;;;9.20;99.90;;;;;;5014104;28;20402;-71
2022/04/15 09:12:30;;;;;;;3.60;3.00;;;9.40;99.90;;;;;;5014176;28;20399;-70
2022/04/15 09:14:59;;;;;;;3.57;2.33;;;9.30;99.90;;;;;;5014300;28;20998;-71
2022/04/15 09:17:28;;;;;;;3.53;2.80;;;9.40;99.90;;;;;;5014833;28;20810;-71
2022/04/15 09:19:54;;;;;;;3.60;2.93;;;9.30;99.90;;;;;;5013963;28;20442;-69
2022/04/15 09:22:19;;;;;;;5.03;3.50;;;9.20;99.90;;;;;;5013909;28;20901;-70
2022/04/15 09:24:47;;;;;;;3.83;3.37;;;9.30;99.90;;;;;;5014003;28;20285;-70
2022/04/15 09:27:12;;;;;;;5.43;3.17;;;9.30;99.90;;;;;;5014275;28;20169;-70
2022/04/15 09:29:40;;;;;;;4.83;3.10;;;9.00;99.90;;;;;;5015508;28;20763;-71
2022/04/15 09:32:07;;;;;;;4.43;3.10;;;9.00;99.90;;;;;;5014178;28;20176;-71
2022/04/15 09:34:32;;;;;;;3.53;3.20;;;9.00;99.90;;;;;;5012064;28;20461;-71
2022/04/15 09:36:58;;;;;;;4.37;3.43;;;9.00;99.90;;;;;;5046597;23;20489;-67
2022/04/15 09:39:23;;;;;;;3.83;2.90;;;9.00;99.90;;;;;;5055718;28;20211;-68
2022/04/15 09:41:56;;;;;;;2.87;2.37;;;8.90;99.90;;;;;;5055122;28;20193;-68
2022/04/15 09:44:31;;;;;;;4.60;3.33;;;8.90;99.90;;;;;;5054998;28;20195;-69
2022/04/15 09:47:03;;;;;;;4.00;2.87;;;8.90;99.90;;;;;;5056058;28;20420;-68
2022/04/15 09:49:32;;;;;;;4.80;3.00;;;8.90;99.90;;;;;;5058471;28;20397;-68
2022/04/15 09:51:59;;;;;;;6.10;2.90;;;8.90;99.90;;;;;;5060320;28;20410;-69
2022/04/15 09:54:27;;;;;;;2.77;2.50;;;8.90;99.90;;;;;;5061062;28;20423;-68
2022/04/15 09:56:55;;;;;;;4.37;2.73;;;9.10;99.90;;;;;;5060715;28;20425;-68
2022/04/15 09:59:23;;;;;;;3.17;2.87;;;8.90;99.90;;;;;;5062286;28;20463;-68
2022/04/15 10:01:56;;;;;;;4.73;3.33;;;8.90;99.90;;;;;;5057685;28;20458;-69
2022/04/15 10:04:25;;;;;;;3.80;3.17;;;9.00;99.90;;;;;;5053927;28;20449;-67
2022/04/15 10:06:52;;;;;;;4.27;3.33;;;9.00;99.90;;;;;;5054275;28;20522;-68
2022/04/15 10:09:17;;;;;;;3.20;2.70;;;9.10;99.90;;;;;;5054628;28;20830;-68
2022/04/15 10:11:45;;;;;;;4.20;3.37;;;9.10;99.90;;;;;;5054551;28;20445;-68
2022/04/15 10:14:12;;;;;;;7.47;4.30;;;8.90;99.90;;;;;;5054215;28;20225;-68
2022/04/15 10:16:39;;;;;;;3.53;2.23;;;8.90;99.90;;;;;;5053698;28;20913;-69
2022/04/15 10:19:05;;;;;;;5.27;3.33;;;8.90;99.90;;;;;;5053736;28;21011;-68
2022/04/15 10:21:33;;;;;;;5.33;3.77;;;8.90;99.90;;;;;;5053760;28;20782;-68
2022/04/15 10:24:01;;;;;;;5.60;2.73;;;8.90;99.90;;;;;;5053366;28;21045;-68
2022/04/15 10:26:31;;;;;;;5.93;3.80;;;8.90;99.90;;;;;;5053210;28;20435;-68
2022/04/15 10:29:00;;;;;;;4.67;2.63;;;8.90;99.90;;;;;;5053283;28;20912;-68
2022/04/15 10:31:46;;;;;;;3.10;2.80;;;9.00;99.90;;;;;;5052921;28;20405;-68
2022/04/15 10:34:17;;;;;;;5.80;2.93;;;9.10;99.90;;;;;;5053336;28;20462;-69
2022/04/15 10:36:51;;;;;;;3.83;2.73;;;9.20;99.90;;;;;;5053054;28;20452;-68
2022/04/15 10:39:21;;;;;;;4.03;3.63;;;9.20;99.90;;;;;;5053237;28;20589;-69
2022/04/15 10:41:55;;;;;;;5.30;2.70;;;9.20;99.90;;;;;;5052943;28;20405;-68
2022/04/15 10:44:26;;;;;;;4.20;2.77;;;9.20;99.90;;;;;;5052823;28;20449;-68
2022/04/15 10:46:52;;;;;;;3.73;3.20;;;9.20;99.90;;;;;;5052860;28;20436;-69
2022/04/15 10:49:23;;;;;;;3.80;3.00;;;9.20;99.90;;;;;;5051431;28;20397;-70
2022/04/15 10:51:54;;;;;;;3.13;2.83;;;9.50;99.90;;;;;;5052718;28;20171;-68
2022/04/15 10:54:38;;;;;;;4.00;3.23;;;9.50;99.90;;;;;;5052841;28;20397;-69
2022/04/15 10:57:14;;;;;;;3.60;2.67;;;9.70;99.90;;;;;;5052443;28;20426;-69
2022/04/15 11:02:40;;;;;;;3.90;2.40;;;9.70;99.90;;;;;;5053991;28;20443;-69
2022/04/15 11:05:14;;;;;;;3.23;3.03;;;9.90;99.90;;;;;;5054038;28;20416;-69
2022/04/15 11:08:03;;;;;;;2.63;2.43;;;9.80;99.90;;;;;;5053868;28;20439;-68
2022/04/15 11:10:41;;;;;;;4.20;2.40;;;9.80;99.90;;;;;;5054237;28;20399;-68
2022/04/15 11:13:22;;;;;;;2.60;2.40;;;9.80;99.90;;;;;;5052059;28;20413;-67
2022/04/15 11:16:15;;;;;;;2.47;2.20;;;9.90;99.90;;;;;;5050717;28;20453;-68
2022/04/15 11:18:43;;;;;;;2.07;1.60;;;9.70;99.90;;;;;;5048722;28;20457;-68
2022/04/15 11:21:19;;;;;;;2.03;1.53;;;9.80;99.90;;;;;;5050329;28;20456;-68
2022/04/15 11:23:55;;;;;;;1.93;1.80;;;9.90;99.90;;;;;;5052207;28;20454;-68
2022/04/15 11:26:23;;;;;;;1.90;1.80;;;9.90;99.90;;;;;;5051954;28;20426;-69
2022/04/15 11:28:50;;;;;;;1.77;1.67;;;9.90;99.90;;;;;;5052328;28;20399;-69
2022/04/15 11:31:29;;;;;;;2.63;1.50;;;9.90;99.90;;;;;;5052086;28;20422;-68
2022/04/15 11:34:06;;;;;;;2.57;1.90;;;9.90;99.90;;;;;;5052332;28;20418;-68
2022/04/15 11:36:33;;;;;;;1.67;1.20;;;9.90;99.90;;;;;;5051988;28;20433;-68
2022/04/15 11:39:02;;;;;;;2.07;1.60;;;9.90;99.90;;;;;;5051947;28;20413;-70
2022/04/15 11:41:28;;;;;;;1.50;1.40;;;9.90;99.90;;;;;;5052814;28;20471;-68
2022/04/15 11:43:55;;;;;;;1.67;1.47;;;9.80;99.90;;;;;;5052480;28;20441;-69
2022/04/15 11:46:21;;;;;;;1.27;1.17;;;9.80;99.90;;;;;;5050973;28;20569;-68
2022/04/15 11:48:47;;;;;;;1.60;1.40;;;9.90;99.90;;;;;;5052484;28;20405;-68
2022/04/15 11:51:12;;;;;;;2.07;1.50;;;10.00;99.90;;;;;;5052822;28;20334;-68
2022/04/15 11:53:38;;;;;;;1.80;1.50;;;9.90;99.90;;;;;;5052932;28;20961;-68
2022/04/15 11:56:04;;;;;;;1.60;1.50;;;10.00;99.90;;;;;;5052182;28;20599;-68
2022/04/15 11:58:34;;;;;;;1.77;1.30;;;10.10;99.90;;;;;;5052081;28;20791;-68
2022/04/15 12:01:01;;;;;;;1.37;1.27;;;10.10;99.90;;;;;;5052181;28;20171;-68
2022/04/15 12:03:27;;;;;;;1.53;1.43;;;10.00;99.90;;;;;;5051903;28;20445;-68
2022/04/15 12:05:54;;;;;;;1.97;1.73;;;10.10;99.90;;;;;;5051538;28;20504;-69
2022/04/15 12:08:21;;;;;;;1.67;1.57;;;10.00;99.90;;;;;;5051674;28;20492;-68
2022/04/15 12:10:48;;;;;;;1.80;1.47;;;10.00;99.90;;;;;;5051832;28;20763;-68
2022/04/15 12:13:15;;;;;;;1.43;1.17;;;9.90;99.90;;;;;;5051996;28;20446;-68
2022/04/15 12:15:41;;;;;;;1.30;1.17;;;10.00;99.90;;;;;;5052176;28;20432;-68
2022/04/15 12:18:07;;;;;;;1.67;1.57;;;10.00;99.90;;;;;;5052121;28;20429;-68
2022/04/15 12:20:36;;;;;;;1.50;1.40;;;10.10;99.90;;;;;;5053719;28;20433;-69
2022/04/15 12:23:03;;;;;;;1.60;1.50;;;10.00;99.90;;;;;;5055144;28;20480;-68
2022/04/15 12:29:47;;;;;;;2.87;1.57;;;9.90;99.90;;;;;;5055112;28;20510;-68
2022/04/15 12:30:59;;;;;;;1.67;1.40;;;9.90;99.90;;;;;;5054571;28;20486;-69
2022/04/15 12:33:25;;;;;;;1.87;1.53;;;10.00;99.90;;;;;;5054923;28;20405;-69
2022/04/15 12:36:01;;;;;;;1.87;1.40;;;10.00;99.90;;;;;;5054514;28;20189;-67
2022/04/15 12:38:28;;;;;;;1.40;1.30;;;10.10;99.90;;;;;;5054465;28;20461;-69
2022/04/15 12:41:00;;;;;;;2.60;1.70;;;10.10;99.90;;;;;;5054942;28;20403;-68
2022/04/15 12:43:25;;;;;;;2.23;1.30;;;10.20;99.90;;;;;;5054856;28;20519;-68
2022/04/15 12:45:53;;;;;;;1.27;1.17;;;10.30;99.90;;;;;;5053131;28;20413;-69
2022/04/15 12:48:19;;;;;;;2.50;1.70;;;10.30;99.90;;;;;;5054637;28;20203;-67
2022/04/15 12:50:47;;;;;;;1.57;1.47;;;10.40;99.90;;;;;;5054695;28;20414;-68
2022/04/15 12:53:17;;;;;;;1.97;1.33;;;10.40;99.90;;;;;;5054692;28;20421;-69
2022/04/15 12:55:44;;;;;;;1.83;1.40;;;10.50;99.90;;;;;;5054855;28;20433;-68
2022/04/15 12:58:23;;;;;;;1.33;1.10;;;10.50;99.90;;;;;;5054582;28;20425;-68
2022/04/15 13:00:51;;;;;;;2.00;1.73;;;10.30;99.90;;;;;;5054531;28;20835;-69